sensor_id;sensor_type;location;lat;lon;timestamp;P1;durP1;ratioP1;P2;durP2;ratioP2
36327;SDS011;22354;50.012;8.264;2022-08-19T00:01:45;19.98;;;12.00;;
36327;SDS011;22354;50.012;8.264;2022-08-19T00:04:12;18.80;;;12.05;;
36327;SDS011;22354;50.012;8.264;2022-08-19T00:06:39;20.07;;;11.77;;
36327;SDS011;22354;50.012;8.264;2022-08-19T00:09:07;17.23;;;11.60;;
36327;SDS011;22354;50.012;8.264;2022-08-19T00:11:34;23.08;;;12.45;;
36327;SDS011;22354;50.012;8.264;2022-08-19T00:14:02;19.85;;;12.10;;
36327;SDS011;22354;50.012;8.264;2022-08-19T00:16:29;19.52;;;11.90;;
36327;SDS011;22354;50.012;8.264;2022-08-19T00:18:54;17.38;;;10.93;;
36327;SDS011;22354;50.012;8.264;2022-08-19T00:21:20;17.97;;;10.97;;
36327;SDS011;22354;50.012;8.264;2022-08-19T00:23:45;16.47;;;11.43;;
36327;SDS011;22354;50.012;8.264;2022-08-19T00:26:11;24.23;;;11.37;;
36327;SDS011;22354;50.012;8.264;2022-08-19T00:28:36;17.90;;;11.63;;
36327;SDS011;22354;50.012;8.264;2022-08-19T00:31:05;19.58;;;12.20;;
36327;SDS011;22354;50.012;8.264;2022-08-19T00:33:32;16.75;;;10.90;;
36327;SDS011;22354;50.012;8.264;2022-08-19T00:35:58;19.10;;;12.10;;
36327;SDS011;22354;50.012;8.264;2022-08-19T00:38:24;20.42;;;12.38;;
36327;SDS011;22354;50.012;8.264;2022-08-19T00:40:49;19.20;;;12.43;;
36327;SDS011;22354;50.012;8.264;2022-08-19T00:43:18;22.93;;;13.00;;
36327;SDS011;22354;50.012;8.264;2022-08-19T00:45:44;23.42;;;13.40;;
36327;SDS011;22354;50.012;8.264;2022-08-19T00:48:10;21.80;;;13.23;;
36327;SDS011;22354;50.012;8.264;2022-08-19T00:50:36;22.92;;;13.45;;
36327;SDS011;22354;50.012;8.264;2022-08-19T00:53:05;21.42;;;13.25;;
36327;SDS011;22354;50.012;8.264;2022-08-19T00:55:31;20.27;;;12.48;;
36327;SDS011;22354;50.012;8.264;2022-08-19T00:57:59;24.08;;;13.77;;
36327;SDS011;22354;50.012;8.264;2022-08-19T01:00:30;18.67;;;12.88;;
36327;SDS011;22354;50.012;8.264;2022-08-19T01:02:56;19.05;;;12.90;;
36327;SDS011;22354;50.012;8.264;2022-08-19T01:05:26;20.53;;;12.30;;
36327;SDS011;22354;50.012;8.264;2022-08-19T01:07:54;21.20;;;12.95;;
36327;SDS011;22354;50.012;8.264;2022-08-19T01:10:22;22.40;;;13.25;;
36327;SDS011;22354;50.012;8.264;2022-08-19T01:12:51;18.95;;;12.38;;
36327;SDS011;22354;50.012;8.264;2022-08-19T01:15:19;19.58;;;12.60;;
36327;SDS011;22354;50.012;8.264;2022-08-19T01:17:47;21.80;;;13.10;;
36327;SDS011;22354;50.012;8.264;2022-08-19T01:20:15;19.73;;;13.07;;
36327;SDS011;22354;50.012;8.264;2022-08-19T01:22:45;20.92;;;12.32;;
36327;SDS011;22354;50.012;8.264;2022-08-19T01:25:38;18.15;;;12.10;;
36327;SDS011;22354;50.012;8.264;2022-08-19T01:28:08;17.45;;;12.10;;
36327;SDS011;22354;50.012;8.264;2022-08-19T01:30:41;19.23;;;11.77;;
36327;SDS011;22354;50.012;8.264;2022-08-19T01:33:08;20.25;;;12.48;;
36327;SDS011;22354;50.012;8.264;2022-08-19T01:35:34;17.17;;;11.83;;
36327;SDS011;22354;50.012;8.264;2022-08-19T01:38:01;19.65;;;11.98;;
36327;SDS011;22354;50.012;8.264;2022-08-19T01:40:33;16.98;;;11.40;;
36327;SDS011;22354;50.012;8.264;2022-08-19T01:43:01;18.85;;;11.75;;
36327;SDS011;22354;50.012;8.264;2022-08-19T01:45:28;17.52;;;11.90;;
36327;SDS011;22354;50.012;8.264;2022-08-19T01:47:56;20.33;;;12.17;;
36327;SDS011;22354;50.012;8.264;2022-08-19T01:50:22;20.40;;;12.80;;
36327;SDS011;22354;50.012;8.264;2022-08-19T01:52:47;18.70;;;12.13;;
36327;SDS011;22354;50.012;8.264;2022-08-19T01:55:17;20.40;;;12.50;;
36327;SDS011;22354;50.012;8.264;2022-08-19T01:57:46;20.25;;;12.18;;
36327;SDS011;22354;50.012;8.264;2022-08-19T02:00:16;20.00;;;13.27;;
36327;SDS011;22354;50.012;8.264;2022-08-19T02:02:43;21.58;;;12.88;;
36327;SDS011;22354;50.012;8.264;2022-08-19T02:05:08;22.50;;;13.30;;
36327;SDS011;22354;50.012;8.264;2022-08-19T02:07:35;21.02;;;12.38;;
36327;SDS011;22354;50.012;8.264;2022-08-19T02:10:02;24.52;;;13.95;;
36327;SDS011;22354;50.012;8.264;2022-08-19T02:12:29;19.73;;;13.80;;
36327;SDS011;22354;50.012;8.264;2022-08-19T02:14:55;21.20;;;13.03;;
36327;SDS011;22354;50.012;8.264;2022-08-19T02:17:20;21.77;;;13.10;;
36327;SDS011;22354;50.012;8.264;2022-08-19T02:19:45;24.77;;;13.37;;
36327;SDS011;22354;50.012;8.264;2022-08-19T02:22:10;18.10;;;12.13;;
36327;SDS011;22354;50.012;8.264;2022-08-19T02:24:36;20.03;;;12.53;;
36327;SDS011;22354;50.012;8.264;2022-08-19T02:27:01;23.03;;;13.60;;
36327;SDS011;22354;50.012;8.264;2022-08-19T02:29:26;21.23;;;12.93;;
36327;SDS011;22354;50.012;8.264;2022-08-19T02:31:52;17.83;;;12.40;;
36327;SDS011;22354;50.012;8.264;2022-08-19T02:34:17;18.37;;;12.23;;
36327;SDS011;22354;50.012;8.264;2022-08-19T02:36:42;19.93;;;12.27;;
36327;SDS011;22354;50.012;8.264;2022-08-19T02:39:08;16.57;;;11.27;;
36327;SDS011;22354;50.012;8.264;2022-08-19T02:41:34;15.85;;;11.20;;
36327;SDS011;22354;50.012;8.264;2022-08-19T02:44:00;18.17;;;11.23;;
36327;SDS011;22354;50.012;8.264;2022-08-19T02:46:29;18.70;;;11.25;;
36327;SDS011;22354;50.012;8.264;2022-08-19T02:48:57;16.38;;;10.98;;
36327;SDS011;22354;50.012;8.264;2022-08-19T02:51:30;21.08;;;11.65;;
36327;SDS011;22354;50.012;8.264;2022-08-19T02:53:58;18.92;;;11.65;;
36327;SDS011;22354;50.012;8.264;2022-08-19T02:56:24;19.75;;;11.40;;
36327;SDS011;22354;50.012;8.264;2022-08-19T02:58:52;17.52;;;11.48;;
36327;SDS011;22354;50.012;8.264;2022-08-19T03:01:20;16.03;;;11.17;;
36327;SDS011;22354;50.012;8.264;2022-08-19T03:03:48;16.35;;;11.13;;
36327;SDS011;22354;50.012;8.264;2022-08-19T03:06:15;18.43;;;11.53;;
36327;SDS011;22354;50.012;8.264;2022-08-19T03:08:41;20.42;;;11.65;;
36327;SDS011;22354;50.012;8.264;2022-08-19T03:11:12;19.23;;;11.93;;
36327;SDS011;22354;50.012;8.264;2022-08-19T03:13:39;17.35;;;11.88;;
36327;SDS011;22354;50.012;8.264;2022-08-19T03:16:04;19.97;;;11.63;;
36327;SDS011;22354;50.012;8.264;2022-08-19T03:18:30;18.95;;;12.32;;
36327;SDS011;22354;50.012;8.264;2022-08-19T03:20:55;19.47;;;12.87;;
36327;SDS011;22354;50.012;8.264;2022-08-19T03:23:21;16.47;;;11.53;;
36327;SDS011;22354;50.012;8.264;2022-08-19T03:25:48;16.25;;;11.57;;
36327;SDS011;22354;50.012;8.264;2022-08-19T03:28:15;18.67;;;11.82;;
36327;SDS011;22354;50.012;8.264;2022-08-19T03:30:41;18.70;;;11.68;;
36327;SDS011;22354;50.012;8.264;2022-08-19T03:33:09;16.85;;;11.57;;
36327;SDS011;22354;50.012;8.264;2022-08-19T03:35:35;16.77;;;11.25;;
36327;SDS011;22354;50.012;8.264;2022-08-19T03:38:04;18.67;;;11.73;;
36327;SDS011;22354;50.012;8.264;2022-08-19T03:40:31;19.00;;;11.98;;
36327;SDS011;22354;50.012;8.264;2022-08-19T03:42:56;17.85;;;11.32;;
36327;SDS011;22354;50.012;8.264;2022-08-19T03:45:22;18.10;;;11.70;;
36327;SDS011;22354;50.012;8.264;2022-08-19T03:47:48;18.90;;;11.98;;
36327;SDS011;22354;50.012;8.264;2022-08-19T03:50:13;16.53;;;12.33;;
36327;SDS011;22354;50.012;8.264;2022-08-19T03:52:38;17.20;;;12.05;;
36327;SDS011;22354;50.012;8.264;2022-08-19T03:55:04;20.07;;;11.20;;
36327;SDS011;22354;50.012;8.264;2022-08-19T03:57:30;18.90;;;11.27;;
36327;SDS011;22354;50.012;8.264;2022-08-19T03:59:55;16.73;;;11.00;;
36327;SDS011;22354;50.012;8.264;2022-08-19T04:02:21;15.83;;;10.63;;
36327;SDS011;22354;50.012;8.264;2022-08-19T04:04:46;19.33;;;11.53;;
36327;SDS011;22354;50.012;8.264;2022-08-19T04:07:13;20.77;;;11.13;;
36327;SDS011;22354;50.012;8.264;2022-08-19T04:09:46;18.63;;;11.77;;
36327;SDS011;22354;50.012;8.264;2022-08-19T04:12:11;17.83;;;11.10;;
36327;SDS011;22354;50.012;8.264;2022-08-19T04:14:37;16.40;;;10.93;;
36327;SDS011;22354;50.012;8.264;2022-08-19T04:17:02;19.73;;;10.87;;
36327;SDS011;22354;50.012;8.264;2022-08-19T04:19:29;17.98;;;11.30;;
36327;SDS011;22354;50.012;8.264;2022-08-19T04:21:56;18.45;;;11.25;;
36327;SDS011;22354;50.012;8.264;2022-08-19T04:24:22;19.63;;;12.13;;
36327;SDS011;22354;50.012;8.264;2022-08-19T04:26:48;15.57;;;10.75;;
36327;SDS011;22354;50.012;8.264;2022-08-19T04:29:15;16.55;;;10.77;;
36327;SDS011;22354;50.012;8.264;2022-08-19T04:31:43;18.10;;;11.35;;
36327;SDS011;22354;50.012;8.264;2022-08-19T04:34:10;18.77;;;10.82;;
36327;SDS011;22354;50.012;8.264;2022-08-19T04:36:37;19.40;;;11.48;;
36327;SDS011;22354;50.012;8.264;2022-08-19T04:39:07;17.45;;;10.88;;
36327;SDS011;22354;50.012;8.264;2022-08-19T04:41:36;17.80;;;10.73;;
36327;SDS011;22354;50.012;8.264;2022-08-19T04:44:20;19.15;;;10.95;;
36327;SDS011;22354;50.012;8.264;2022-08-19T04:46:46;14.75;;;10.35;;
36327;SDS011;22354;50.012;8.264;2022-08-19T04:49:13;18.85;;;11.63;;
36327;SDS011;22354;50.012;8.264;2022-08-19T04:51:40;16.50;;;9.97;;
36327;SDS011;22354;50.012;8.264;2022-08-19T04:54:08;17.45;;;11.27;;
36327;SDS011;22354;50.012;8.264;2022-08-19T04:56:34;16.98;;;10.52;;
36327;SDS011;22354;50.012;8.264;2022-08-19T04:58:59;15.35;;;10.57;;
36327;SDS011;22354;50.012;8.264;2022-08-19T05:01:29;18.02;;;11.18;;
36327;SDS011;22354;50.012;8.264;2022-08-19T05:03:58;17.05;;;9.77;;
36327;SDS011;22354;50.012;8.264;2022-08-19T05:06:29;17.00;;;10.75;;
36327;SDS011;22354;50.012;8.264;2022-08-19T05:08:56;16.45;;;11.13;;
36327;SDS011;22354;50.012;8.264;2022-08-19T05:11:22;20.30;;;10.97;;
36327;SDS011;22354;50.012;8.264;2022-08-19T05:13:53;17.43;;;10.73;;
36327;SDS011;22354;50.012;8.264;2022-08-19T05:16:20;16.13;;;10.25;;
36327;SDS011;22354;50.012;8.264;2022-08-19T05:18:47;20.58;;;10.38;;
36327;SDS011;22354;50.012;8.264;2022-08-19T05:21:31;17.33;;;10.75;;
36327;SDS011;22354;50.012;8.264;2022-08-19T05:24:16;19.15;;;10.90;;
36327;SDS011;22354;50.012;8.264;2022-08-19T05:26:44;27.73;;;11.80;;
36327;SDS011;22354;50.012;8.264;2022-08-19T05:29:11;17.73;;;10.13;;
36327;SDS011;22354;50.012;8.264;2022-08-19T05:31:38;24.70;;;10.60;;
36327;SDS011;22354;50.012;8.264;2022-08-19T05:34:04;21.45;;;10.82;;
36327;SDS011;22354;50.012;8.264;2022-08-19T05:36:33;17.45;;;10.13;;
36327;SDS011;22354;50.012;8.264;2022-08-19T05:39:01;22.35;;;10.75;;
36327;SDS011;22354;50.012;8.264;2022-08-19T05:41:28;19.02;;;10.50;;
36327;SDS011;22354;50.012;8.264;2022-08-19T05:44:00;19.58;;;10.48;;
36327;SDS011;22354;50.012;8.264;2022-08-19T05:46:27;19.70;;;9.75;;
36327;SDS011;22354;50.012;8.264;2022-08-19T05:48:53;17.53;;;9.73;;
36327;SDS011;22354;50.012;8.264;2022-08-19T05:51:21;14.48;;;9.80;;
36327;SDS011;22354;50.012;8.264;2022-08-19T05:53:47;38.38;;;12.02;;
36327;SDS011;22354;50.012;8.264;2022-08-19T05:56:13;21.83;;;10.57;;
36327;SDS011;22354;50.012;8.264;2022-08-19T05:58:40;17.25;;;9.77;;
36327;SDS011;22354;50.012;8.264;2022-08-19T06:01:14;14.63;;;9.10;;
36327;SDS011;22354;50.012;8.264;2022-08-19T06:03:42;14.35;;;8.75;;
36327;SDS011;22354;50.012;8.264;2022-08-19T06:06:08;17.92;;;8.93;;
36327;SDS011;22354;50.012;8.264;2022-08-19T06:08:36;15.93;;;9.90;;
36327;SDS011;22354;50.012;8.264;2022-08-19T06:11:13;15.85;;;9.02;;
36327;SDS011;22354;50.012;8.264;2022-08-19T06:13:50;15.15;;;8.25;;
36327;SDS011;22354;50.012;8.264;2022-08-19T06:16:18;20.02;;;8.80;;
36327;SDS011;22354;50.012;8.264;2022-08-19T06:18:46;13.02;;;8.02;;
36327;SDS011;22354;50.012;8.264;2022-08-19T06:21:13;13.32;;;8.55;;
36327;SDS011;22354;50.012;8.264;2022-08-19T06:23:39;14.65;;;7.80;;
36327;SDS011;22354;50.012;8.264;2022-08-19T06:26:05;14.15;;;7.68;;
36327;SDS011;22354;50.012;8.264;2022-08-19T06:28:30;14.32;;;8.52;;
36327;SDS011;22354;50.012;8.264;2022-08-19T06:30:57;12.77;;;7.70;;
36327;SDS011;22354;50.012;8.264;2022-08-19T06:33:23;12.77;;;7.50;;
36327;SDS011;22354;50.012;8.264;2022-08-19T06:35:48;14.20;;;7.13;;
36327;SDS011;22354;50.012;8.264;2022-08-19T06:38:13;14.30;;;7.33;;
36327;SDS011;22354;50.012;8.264;2022-08-19T06:40:39;12.03;;;6.93;;
36327;SDS011;22354;50.012;8.264;2022-08-19T06:43:04;13.67;;;7.57;;
36327;SDS011;22354;50.012;8.264;2022-08-19T06:45:29;10.10;;;7.37;;
36327;SDS011;22354;50.012;8.264;2022-08-19T06:47:55;14.65;;;7.63;;
36327;SDS011;22354;50.012;8.264;2022-08-19T06:50:21;10.02;;;7.18;;
36327;SDS011;22354;50.012;8.264;2022-08-19T06:52:48;12.43;;;6.78;;
36327;SDS011;22354;50.012;8.264;2022-08-19T06:55:14;11.70;;;7.50;;
36327;SDS011;22354;50.012;8.264;2022-08-19T06:57:40;10.40;;;6.63;;
36327;SDS011;22354;50.012;8.264;2022-08-19T07:00:08;14.35;;;7.00;;
36327;SDS011;22354;50.012;8.264;2022-08-19T07:02:38;11.68;;;7.13;;
36327;SDS011;22354;50.012;8.264;2022-08-19T07:05:07;8.60;;;6.50;;
36327;SDS011;22354;50.012;8.264;2022-08-19T07:07:33;11.90;;;6.97;;
36327;SDS011;22354;50.012;8.264;2022-08-19T07:09:59;14.85;;;6.30;;
36327;SDS011;22354;50.012;8.264;2022-08-19T07:12:26;14.05;;;6.60;;
36327;SDS011;22354;50.012;8.264;2022-08-19T07:14:59;9.68;;;6.90;;
36327;SDS011;22354;50.012;8.264;2022-08-19T07:17:25;15.00;;;6.70;;
36327;SDS011;22354;50.012;8.264;2022-08-19T07:19:50;9.35;;;6.68;;
36327;SDS011;22354;50.012;8.264;2022-08-19T07:22:16;9.93;;;6.60;;
36327;SDS011;22354;50.012;8.264;2022-08-19T07:24:41;13.95;;;6.85;;
36327;SDS011;22354;50.012;8.264;2022-08-19T07:27:07;11.00;;;7.15;;
36327;SDS011;22354;50.012;8.264;2022-08-19T07:29:34;13.75;;;7.18;;
36327;SDS011;22354;50.012;8.264;2022-08-19T07:32:00;13.82;;;7.10;;
36327;SDS011;22354;50.012;8.264;2022-08-19T07:34:27;9.63;;;6.68;;
36327;SDS011;22354;50.012;8.264;2022-08-19T07:36:54;12.63;;;7.00;;
36327;SDS011;22354;50.012;8.264;2022-08-19T07:39:22;13.70;;;7.07;;
36327;SDS011;22354;50.012;8.264;2022-08-19T07:41:50;11.25;;;7.00;;
36327;SDS011;22354;50.012;8.264;2022-08-19T07:44:16;12.00;;;6.50;;
36327;SDS011;22354;50.012;8.264;2022-08-19T07:46:44;10.10;;;6.35;;
36327;SDS011;22354;50.012;8.264;2022-08-19T07:49:13;9.43;;;6.07;;
36327;SDS011;22354;50.012;8.264;2022-08-19T07:51:44;13.23;;;7.35;;
36327;SDS011;22354;50.012;8.264;2022-08-19T07:54:12;9.57;;;6.32;;
36327;SDS011;22354;50.012;8.264;2022-08-19T07:56:37;11.50;;;7.37;;
36327;SDS011;22354;50.012;8.264;2022-08-19T07:59:02;14.40;;;7.10;;
36327;SDS011;22354;50.012;8.264;2022-08-19T08:01:28;14.37;;;8.67;;
36327;SDS011;22354;50.012;8.264;2022-08-19T08:03:55;11.40;;;7.47;;
36327;SDS011;22354;50.012;8.264;2022-08-19T08:06:39;13.63;;;7.18;;
36327;SDS011;22354;50.012;8.264;2022-08-19T08:09:29;12.20;;;7.63;;
36327;SDS011;22354;50.012;8.264;2022-08-19T08:11:58;11.90;;;7.25;;
36327;SDS011;22354;50.012;8.264;2022-08-19T08:14:33;13.50;;;6.88;;
36327;SDS011;22354;50.012;8.264;2022-08-19T08:17:01;12.23;;;7.95;;
36327;SDS011;22354;50.012;8.264;2022-08-19T08:19:28;12.65;;;8.10;;
36327;SDS011;22354;50.012;8.264;2022-08-19T08:21:55;15.17;;;8.40;;
36327;SDS011;22354;50.012;8.264;2022-08-19T08:24:22;13.10;;;8.83;;
36327;SDS011;22354;50.012;8.264;2022-08-19T08:26:47;12.98;;;7.03;;
36327;SDS011;22354;50.012;8.264;2022-08-19T08:29:13;13.90;;;8.60;;
36327;SDS011;22354;50.012;8.264;2022-08-19T08:31:40;14.75;;;9.63;;
36327;SDS011;22354;50.012;8.264;2022-08-19T08:34:07;16.37;;;10.30;;
36327;SDS011;22354;50.012;8.264;2022-08-19T08:36:48;15.70;;;10.60;;
36327;SDS011;22354;50.012;8.264;2022-08-19T08:39:17;17.77;;;11.13;;
36327;SDS011;22354;50.012;8.264;2022-08-19T08:44:27;18.40;;;11.27;;
36327;SDS011;22354;50.012;8.264;2022-08-19T08:46:59;18.00;;;10.93;;
36327;SDS011;22354;50.012;8.264;2022-08-19T08:49:33;14.50;;;9.65;;
36327;SDS011;22354;50.012;8.264;2022-08-19T08:52:09;14.33;;;10.17;;
36327;SDS011;22354;50.012;8.264;2022-08-19T08:54:41;15.05;;;9.88;;
36327;SDS011;22354;50.012;8.264;2022-08-19T08:57:13;15.53;;;10.30;;
36327;SDS011;22354;50.012;8.264;2022-08-19T08:59:43;14.98;;;9.20;;
36327;SDS011;22354;50.012;8.264;2022-08-19T09:02:15;16.25;;;8.80;;
36327;SDS011;22354;50.012;8.264;2022-08-19T09:04:41;14.30;;;9.23;;
36327;SDS011;22354;50.012;8.264;2022-08-19T09:07:25;15.63;;;8.60;;
36327;SDS011;22354;50.012;8.264;2022-08-19T09:10:04;16.13;;;7.93;;
36327;SDS011;22354;50.012;8.264;2022-08-19T09:12:44;13.18;;;7.88;;
36327;SDS011;22354;50.012;8.264;2022-08-19T09:15:40;12.23;;;7.78;;
36327;SDS011;22354;50.012;8.264;2022-08-19T09:18:09;12.93;;;8.25;;
36327;SDS011;22354;50.012;8.264;2022-08-19T09:20:35;15.63;;;9.07;;
36327;SDS011;22354;50.012;8.264;2022-08-19T09:23:00;14.50;;;9.03;;
36327;SDS011;22354;50.012;8.264;2022-08-19T09:25:26;10.53;;;8.00;;
36327;SDS011;22354;50.012;8.264;2022-08-19T09:27:52;14.75;;;8.18;;
36327;SDS011;22354;50.012;8.264;2022-08-19T09:30:20;11.50;;;7.87;;
36327;SDS011;22354;50.012;8.264;2022-08-19T09:32:48;12.52;;;8.02;;
36327;SDS011;22354;50.012;8.264;2022-08-19T09:35:17;12.55;;;8.20;;
36327;SDS011;22354;50.012;8.264;2022-08-19T09:37:42;13.43;;;8.20;;
36327;SDS011;22354;50.012;8.264;2022-08-19T09:40:08;11.60;;;8.65;;
36327;SDS011;22354;50.012;8.264;2022-08-19T09:42:36;11.45;;;9.52;;
36327;SDS011;22354;50.012;8.264;2022-08-19T09:45:01;14.37;;;10.07;;
36327;SDS011;22354;50.012;8.264;2022-08-19T09:47:28;15.33;;;10.90;;
36327;SDS011;22354;50.012;8.264;2022-08-19T09:49:53;13.87;;;10.60;;
36327;SDS011;22354;50.012;8.264;2022-08-19T09:52:20;15.18;;;9.93;;
36327;SDS011;22354;50.012;8.264;2022-08-19T09:54:45;14.73;;;9.90;;
36327;SDS011;22354;50.012;8.264;2022-08-19T09:57:10;13.93;;;9.90;;
36327;SDS011;22354;50.012;8.264;2022-08-19T09:59:35;12.83;;;8.77;;
36327;SDS011;22354;50.012;8.264;2022-08-19T10:02:01;13.97;;;9.60;;
36327;SDS011;22354;50.012;8.264;2022-08-19T10:04:26;12.17;;;7.43;;
36327;SDS011;22354;50.012;8.264;2022-08-19T10:07:10;10.15;;;7.93;;
36327;SDS011;22354;50.012;8.264;2022-08-19T10:09:36;10.83;;;7.70;;
36327;SDS011;22354;50.012;8.264;2022-08-19T10:12:02;10.90;;;7.20;;
36327;SDS011;22354;50.012;8.264;2022-08-19T10:14:29;12.27;;;8.25;;
36327;SDS011;22354;50.012;8.264;2022-08-19T10:16:55;12.27;;;7.72;;
36327;SDS011;22354;50.012;8.264;2022-08-19T10:19:21;10.55;;;7.60;;
36327;SDS011;22354;50.012;8.264;2022-08-19T10:21:46;11.53;;;6.90;;
36327;SDS011;22354;50.012;8.264;2022-08-19T10:24:12;8.67;;;6.83;;
36327;SDS011;22354;50.012;8.264;2022-08-19T10:26:38;9.23;;;6.50;;
36327;SDS011;22354;50.012;8.264;2022-08-19T10:29:10;8.23;;;6.28;;
36327;SDS011;22354;50.012;8.264;2022-08-19T10:31:36;6.45;;;5.70;;
36327;SDS011;22354;50.012;8.264;2022-08-19T10:34:01;7.47;;;5.40;;
36327;SDS011;22354;50.012;8.264;2022-08-19T10:36:31;8.30;;;5.70;;
36327;SDS011;22354;50.012;8.264;2022-08-19T10:39:00;5.10;;;4.60;;
36327;SDS011;22354;50.012;8.264;2022-08-19T10:41:31;7.75;;;4.90;;
36327;SDS011;22354;50.012;8.264;2022-08-19T10:44:04;7.07;;;5.03;;
36327;SDS011;22354;50.012;8.264;2022-08-19T10:46:35;8.30;;;4.80;;
36327;SDS011;22354;50.012;8.264;2022-08-19T10:49:03;6.20;;;5.13;;
36327;SDS011;22354;50.012;8.264;2022-08-19T10:51:31;5.40;;;4.60;;
36327;SDS011;22354;50.012;8.264;2022-08-19T10:54:15;7.70;;;4.88;;
36327;SDS011;22354;50.012;8.264;2022-08-19T10:56:41;8.70;;;5.00;;
36327;SDS011;22354;50.012;8.264;2022-08-19T10:59:17;6.93;;;5.10;;
36327;SDS011;22354;50.012;8.264;2022-08-19T11:01:46;9.90;;;5.60;;
36327;SDS011;22354;50.012;8.264;2022-08-19T11:04:12;7.30;;;5.35;;
36327;SDS011;22354;50.012;8.264;2022-08-19T11:06:39;8.00;;;5.15;;
36327;SDS011;22354;50.012;8.264;2022-08-19T11:09:05;7.88;;;5.25;;
36327;SDS011;22354;50.012;8.264;2022-08-19T11:11:31;6.80;;;5.18;;
36327;SDS011;22354;50.012;8.264;2022-08-19T11:13:57;5.90;;;4.80;;
36327;SDS011;22354;50.012;8.264;2022-08-19T11:16:24;7.73;;;4.77;;
36327;SDS011;22354;50.012;8.264;2022-08-19T11:18:56;6.15;;;4.30;;
36327;SDS011;22354;50.012;8.264;2022-08-19T11:21:27;7.03;;;4.20;;
36327;SDS011;22354;50.012;8.264;2022-08-19T11:24:00;5.50;;;4.38;;
36327;SDS011;22354;50.012;8.264;2022-08-19T11:26:28;7.60;;;4.50;;
36327;SDS011;22354;50.012;8.264;2022-08-19T11:28:55;5.63;;;4.25;;
36327;SDS011;22354;50.012;8.264;2022-08-19T11:31:25;5.35;;;3.95;;
36327;SDS011;22354;50.012;8.264;2022-08-19T11:33:52;7.72;;;4.45;;
36327;SDS011;22354;50.012;8.264;2022-08-19T11:36:19;4.18;;;3.78;;
36327;SDS011;22354;50.012;8.264;2022-08-19T11:38:46;5.63;;;4.32;;
36327;SDS011;22354;50.012;8.264;2022-08-19T11:41:13;4.68;;;4.20;;
36327;SDS011;22354;50.012;8.264;2022-08-19T11:43:40;5.50;;;4.05;;
36327;SDS011;22354;50.012;8.264;2022-08-19T11:46:06;5.40;;;4.37;;
36327;SDS011;22354;50.012;8.264;2022-08-19T11:48:33;4.82;;;4.13;;
36327;SDS011;22354;50.012;8.264;2022-08-19T11:51:02;5.53;;;4.00;;
36327;SDS011;22354;50.012;8.264;2022-08-19T11:53:31;4.43;;;3.97;;
36327;SDS011;22354;50.012;8.264;2022-08-19T11:55:57;4.25;;;3.72;;
36327;SDS011;22354;50.012;8.264;2022-08-19T11:58:22;5.55;;;3.92;;
36327;SDS011;22354;50.012;8.264;2022-08-19T12:00:49;4.70;;;3.38;;
36327;SDS011;22354;50.012;8.264;2022-08-19T12:03:15;7.82;;;3.88;;
36327;SDS011;22354;50.012;8.264;2022-08-19T12:05:41;6.63;;;3.67;;
36327;SDS011;22354;50.012;8.264;2022-08-19T12:08:06;4.38;;;3.47;;
36327;SDS011;22354;50.012;8.264;2022-08-19T12:10:32;4.15;;;3.40;;
36327;SDS011;22354;50.012;8.264;2022-08-19T12:12:58;3.60;;;3.30;;
36327;SDS011;22354;50.012;8.264;2022-08-19T12:15:24;5.37;;;3.13;;
36327;SDS011;22354;50.012;8.264;2022-08-19T12:17:49;4.83;;;3.87;;
36327;SDS011;22354;50.012;8.264;2022-08-19T12:20:14;7.13;;;3.37;;
36327;SDS011;22354;50.012;8.264;2022-08-19T12:22:42;5.03;;;3.70;;
36327;SDS011;22354;50.012;8.264;2022-08-19T12:25:09;3.50;;;3.20;;
36327;SDS011;22354;50.012;8.264;2022-08-19T12:27:36;4.40;;;3.30;;
36327;SDS011;22354;50.012;8.264;2022-08-19T12:30:02;4.97;;;3.63;;
36327;SDS011;22354;50.012;8.264;2022-08-19T12:32:28;5.22;;;3.78;;
36327;SDS011;22354;50.012;8.264;2022-08-19T12:34:54;5.87;;;4.53;;
36327;SDS011;22354;50.012;8.264;2022-08-19T12:37:19;6.90;;;4.40;;
36327;SDS011;22354;50.012;8.264;2022-08-19T12:39:45;8.80;;;4.40;;
36327;SDS011;22354;50.012;8.264;2022-08-19T12:42:11;5.18;;;3.95;;
36327;SDS011;22354;50.012;8.264;2022-08-19T12:44:38;4.63;;;3.50;;
36327;SDS011;22354;50.012;8.264;2022-08-19T12:47:06;4.33;;;3.50;;
36327;SDS011;22354;50.012;8.264;2022-08-19T12:49:32;4.20;;;3.55;;
36327;SDS011;22354;50.012;8.264;2022-08-19T12:51:59;4.65;;;3.40;;
36327;SDS011;22354;50.012;8.264;2022-08-19T12:54:25;4.85;;;3.78;;
36327;SDS011;22354;50.012;8.264;2022-08-19T12:56:51;5.07;;;3.80;;
36327;SDS011;22354;50.012;8.264;2022-08-19T12:59:16;5.40;;;4.03;;
36327;SDS011;22354;50.012;8.264;2022-08-19T13:01:43;4.43;;;3.33;;
36327;SDS011;22354;50.012;8.264;2022-08-19T13:04:09;4.03;;;3.33;;
36327;SDS011;22354;50.012;8.264;2022-08-19T13:06:35;4.20;;;3.65;;
36327;SDS011;22354;50.012;8.264;2022-08-19T13:09:01;5.18;;;3.47;;
36327;SDS011;22354;50.012;8.264;2022-08-19T13:11:26;5.00;;;3.90;;
36327;SDS011;22354;50.012;8.264;2022-08-19T13:13:52;6.60;;;3.67;;
36327;SDS011;22354;50.012;8.264;2022-08-19T13:16:20;5.07;;;3.65;;
36327;SDS011;22354;50.012;8.264;2022-08-19T13:18:47;6.88;;;3.42;;
36327;SDS011;22354;50.012;8.264;2022-08-19T13:21:12;4.72;;;3.38;;
36327;SDS011;22354;50.012;8.264;2022-08-19T13:23:38;5.60;;;3.10;;
36327;SDS011;22354;50.012;8.264;2022-08-19T13:26:05;3.53;;;3.00;;
36327;SDS011;22354;50.012;8.264;2022-08-19T13:28:32;3.45;;;3.15;;
36327;SDS011;22354;50.012;8.264;2022-08-19T13:31:18;5.72;;;3.35;;
36327;SDS011;22354;50.012;8.264;2022-08-19T13:34:03;4.35;;;3.35;;
36327;SDS011;22354;50.012;8.264;2022-08-19T13:36:31;4.97;;;3.42;;
36327;SDS011;22354;50.012;8.264;2022-08-19T13:38:57;5.00;;;3.13;;
36327;SDS011;22354;50.012;8.264;2022-08-19T13:41:22;4.88;;;3.47;;
36327;SDS011;22354;50.012;8.264;2022-08-19T13:43:48;5.13;;;3.47;;
36327;SDS011;22354;50.012;8.264;2022-08-19T13:46:14;3.73;;;2.93;;
36327;SDS011;22354;50.012;8.264;2022-08-19T13:48:40;3.60;;;3.28;;
36327;SDS011;22354;50.012;8.264;2022-08-19T13:51:06;5.20;;;3.57;;
36327;SDS011;22354;50.012;8.264;2022-08-19T13:53:34;6.05;;;3.10;;
36327;SDS011;22354;50.012;8.264;2022-08-19T13:56:05;3.83;;;3.47;;
36327;SDS011;22354;50.012;8.264;2022-08-19T13:58:31;4.00;;;3.37;;
36327;SDS011;22354;50.012;8.264;2022-08-19T14:00:57;4.38;;;3.13;;
36327;SDS011;22354;50.012;8.264;2022-08-19T14:03:24;5.43;;;3.63;;
36327;SDS011;22354;50.012;8.264;2022-08-19T14:05:49;7.82;;;4.35;;
36327;SDS011;22354;50.012;8.264;2022-08-19T14:08:15;5.30;;;4.00;;
36327;SDS011;22354;50.012;8.264;2022-08-19T14:10:41;5.65;;;4.03;;
36327;SDS011;22354;50.012;8.264;2022-08-19T14:13:09;7.63;;;4.13;;
36327;SDS011;22354;50.012;8.264;2022-08-19T14:15:35;6.33;;;3.53;;
36327;SDS011;22354;50.012;8.264;2022-08-19T14:18:02;8.07;;;3.30;;
36327;SDS011;22354;50.012;8.264;2022-08-19T14:20:27;4.10;;;3.33;;
36327;SDS011;22354;50.012;8.264;2022-08-19T14:22:54;3.55;;;3.22;;
36327;SDS011;22354;50.012;8.264;2022-08-19T14:25:21;3.58;;;3.28;;
36327;SDS011;22354;50.012;8.264;2022-08-19T14:27:49;4.35;;;3.42;;
36327;SDS011;22354;50.012;8.264;2022-08-19T14:30:16;3.13;;;2.80;;
36327;SDS011;22354;50.012;8.264;2022-08-19T14:32:46;3.53;;;3.10;;
36327;SDS011;22354;50.012;8.264;2022-08-19T14:35:13;3.78;;;3.28;;
36327;SDS011;22354;50.012;8.264;2022-08-19T14:37:40;4.72;;;3.60;;
36327;SDS011;22354;50.012;8.264;2022-08-19T14:40:06;9.85;;;4.53;;